Time;durP1;ratioP1;P1;durP2;ratioP2;P2;SDS_P1;SDS_P2;PMS_P1;PMS_P2;Temp;Humidity;BMP_temperature;BMP_pressure;BME280_temperature;BME280_humidity;BME280_pressure;Samples;Min_cycle;Max_cycle;Signal;HPM_P1;HPM_P2
2021/06/22 00:00:54;;;;;;;5.35;2.60;;;;;;;16.37;61.70;99685.81;5091942;28;20055;-88
2021/06/22 00:03:20;;;;;;;6.00;2.80;;;;;;;16.34;62.01;99685.22;5093220;28;20060;-87
2021/06/22 00:05:47;;;;;;;7.70;3.00;;;;;;;16.30;62.04;99695.28;5091958;28;20052;-87
2021/06/22 00:08:13;;;;;;;4.47;2.60;;;;;;;16.27;62.12;99703.50;5092919;28;20048;-87
2021/06/22 00:11:00;;;;;;;9.32;3.33;;;;;;;16.24;62.19;99723.16;5091290;28;20083;-87
2021/06/22 00:13:27;;;;;;;8.25;2.90;;;;;;;16.21;62.31;99725.22;5092721;28;20062;-87
2021/06/22 00:15:53;;;;;;;6.63;2.65;;;;;;;16.20;62.40;99740.31;5091164;28;20048;-87
2021/06/22 00:18:20;;;;;;;4.88;3.08;;;;;;;16.21;62.61;99747.31;5092537;28;20060;-87
2021/06/22 00:20:47;;;;;;;9.35;3.70;;;;;;;16.21;62.95;99742.00;5092654;28;20055;-87
2021/06/22 00:23:13;;;;;;;8.30;3.10;;;;;;;16.21;62.58;99744.66;5091512;28;20516;-86
2021/06/22 00:25:40;;;;;;;9.13;3.72;;;;;;;16.23;62.58;99748.03;5092261;28;20104;-87
2021/06/22 00:28:06;;;;;;;7.43;3.35;;;;;;;16.24;62.52;99752.38;5090787;28;20059;-87
2021/06/22 00:30:33;;;;;;;11.75;3.60;;;;;;;16.24;62.72;99751.53;5092380;28;20052;-87
2021/06/22 00:33:00;;;;;;;9.20;3.15;;;;;;;16.25;62.74;99742.59;5091261;28;20401;-86
2021/06/22 00:35:26;;;;;;;9.23;3.42;;;;;;;16.25;62.80;99739.94;5092390;28;20101;-87
2021/06/22 00:37:53;;;;;;;8.55;3.40;;;;;;;16.26;62.67;99746.97;5091302;28;20052;-87
2021/06/22 00:40:20;;;;;;;8.55;3.25;;;;;;;16.26;62.98;99745.13;5091170;28;20048;-86
2021/06/22 00:42:47;;;;;;;8.05;3.20;;;;;;;16.26;63.29;99742.47;5091366;28;20097;-87
2021/06/22 00:45:16;;;;;;;6.68;3.20;;;;;;;16.28;63.01;99745.00;5092600;28;20056;-87
2021/06/22 00:47:42;;;;;;;14.15;3.88;;;;;;;16.30;62.90;99727.16;5091258;28;20051;-87
2021/06/22 00:50:10;;;;;;;12.52;3.33;;;;;;;16.31;62.85;99718.19;5091167;28;20063;-87
2021/06/22 00:52:38;;;;;;;6.35;2.92;;;;;;;16.33;63.19;99726.06;5092814;28;20048;-87
2021/06/22 00:55:28;;;;;;;6.85;2.97;;;;;;;16.33;62.97;99718.09;5091255;28;20139;-89
2021/06/22 00:58:15;;;;;;;6.65;3.08;;;;;;;16.36;63.07;99709.84;5090716;28;20083;-88
2021/06/22 01:00:41;;;;;;;6.65;3.03;;;;;;;16.36;62.64;99704.53;5092449;28;20048;-88
2021/06/22 01:03:08;;;;;;;8.23;3.33;;;;;;;16.34;63.01;99704.66;5091881;28;20508;-88
2021/06/22 01:05:34;;;;;;;8.85;3.22;;;;;;;16.35;63.06;99718.78;5090721;28;20110;-88
2021/06/22 01:08:01;;;;;;;13.18;3.40;;;;;;;16.35;62.82;99713.47;5092640;28;20412;-89
2021/06/22 01:10:29;;;;;;;7.60;3.80;;;;;;;16.33;62.81;99715.44;5096439;28;20051;-89
2021/06/22 01:12:57;;;;;;;6.18;3.40;;;;;;;16.33;62.79;99715.44;5094830;28;20051;-88
2021/06/22 01:15:29;;;;;;;10.95;3.80;;;;;;;16.30;63.00;99716.53;5094585;28;20424;-87
2021/06/22 01:17:58;;;;;;;9.27;4.00;;;;;;;16.30;62.37;99711.22;5094295;28;20044;-87
2021/06/22 01:20:30;;;;;;;7.20;3.47;;;;;;;16.26;62.60;99699.97;5094778;28;20056;-87
2021/06/22 01:22:58;;;;;;;7.45;3.85;;;;;;;16.24;62.51;99712.56;5091389;28;20044;-87
2021/06/22 01:25:25;;;;;;;11.20;4.20;;;;;;;16.21;62.37;99706.63;5075346;28;20061;-87
2021/06/22 01:27:54;;;;;;;12.20;4.05;;;;;;;16.15;62.21;99708.00;5094076;28;20069;-88
2021/06/22 01:30:21;;;;;;;12.40;4.60;;;;;;;16.10;62.43;99704.84;5095010;28;20463;-86
2021/06/22 01:32:47;;;;;;;8.35;3.67;;;;;;;16.05;62.54;99699.06;5094423;28;20040;-87
2021/06/22 01:35:14;;;;;;;6.40;3.92;;;;;;;16.00;62.50;99700.28;5094581;28;20048;-88
2021/06/22 01:38:16;;;;;;;10.15;3.85;;;;;;;15.89;63.28;99709.09;5095431;28;20108;-87
2021/06/22 01:40:48;;;;;;;6.30;3.60;;;;;;;15.92;62.94;99723.09;5013341;28;20060;-87
2021/06/22 01:43:14;;;;;;;9.63;4.35;;;;;;;15.86;62.82;99711.97;5077155;28;20052;-87
2021/06/22 01:45:41;;;;;;;8.50;4.43;;;;;;;15.83;63.10;99709.59;5094451;28;20056;-87
2021/06/22 01:48:08;;;;;;;13.75;4.60;;;;;;;15.78;63.25;99706.47;5094287;28;20047;-88
2021/06/22 01:50:35;;;;;;;11.45;3.88;;;;;;;15.75;63.29;99712.84;5094106;28;20080;-88
2021/06/22 01:53:01;;;;;;;11.75;3.70;;;;;;;15.73;63.34;99712.13;5093708;28;20048;-87
2021/06/22 01:55:39;;;;;;;11.73;4.10;;;;;;;15.73;63.46;99713.94;5093624;28;20433;-85
2021/06/22 01:58:08;;;;;;;7.22;3.90;;;;;;;15.71;63.66;99706.13;5094348;28;20051;-87
2021/06/22 02:00:36;;;;;;;9.82;3.42;;;;;;;15.70;63.76;99704.41;5095086;28;20052;-87
2021/06/22 02:03:02;;;;;;;9.80;4.28;;;;;;;15.69;63.78;99707.16;5095189;28;20059;-87
2021/06/22 02:05:29;;;;;;;10.40;4.35;;;;;;;15.69;63.63;99705.38;5093458;28;20052;-88
2021/06/22 02:07:56;;;;;;;15.27;4.50;;;;;;;15.69;63.79;99708.03;5094020;28;20047;-87
2021/06/22 02:10:23;;;;;;;12.48;4.00;;;;;;;15.70;63.77;99706.22;5094753;28;20059;-87
2021/06/22 02:12:49;;;;;;;11.32;4.22;;;;;;;15.72;63.67;99721.06;5093880;28;20558;-87
2021/06/22 02:15:16;;;;;;;12.05;4.07;;;;;;;15.71;63.64;99721.19;5094584;28;20056;-87
2021/06/22 02:17:43;;;;;;;9.90;4.18;;;;;;;15.70;63.56;99715.00;5094801;28;20051;-86
2021/06/22 02:20:11;;;;;;;14.00;4.45;;;;;;;15.71;63.66;99730.00;5093838;28;20098;-87
2021/06/22 02:22:37;;;;;;;11.68;4.05;;;;;;;15.69;63.77;99739.00;5093787;28;20048;-87
2021/06/22 02:25:06;;;;;;;6.75;3.92;;;;;;;15.66;63.56;99757.84;5093402;28;20056;-86
2021/06/22 02:27:34;;;;;;;9.38;4.63;;;;;;;15.64;63.72;99773.88;5094510;28;20059;-87
2021/06/22 02:30:02;;;;;;;11.85;4.25;;;;;;;15.61;63.65;99764.38;5093372;28;20123;-87
2021/06/22 02:32:29;;;;;;;10.20;4.40;;;;;;;15.60;63.81;99765.34;5092752;28;20513;-87
2021/06/22 02:34:56;;;;;;;13.55;4.47;;;;;;;15.59;63.82;99753.00;5093030;28;20075;-87
2021/06/22 02:37:22;;;;;;;13.10;4.78;;;;;;;15.58;63.93;99747.81;5094614;28;20052;-87
2021/06/22 02:39:49;;;;;;;9.05;4.47;;;;;;;15.56;63.99;99747.97;5074102;28;20053;-87
2021/06/22 02:42:16;;;;;;;9.77;4.20;;;;;;;15.56;64.25;99749.75;5074447;28;20048;-87
2021/06/22 02:44:42;;;;;;;10.63;4.32;;;;;;;15.55;64.07;99750.75;5073014;28;20060;-87
2021/06/22 02:47:09;;;;;;;6.82;4.00;;;;;;;15.56;64.15;99752.41;5072889;28;20045;-87
2021/06/22 02:49:36;;;;;;;8.23;3.90;;;;;;;15.58;64.18;99753.13;5072916;28;20059;-87
2021/06/22 02:52:05;;;;;;;10.98;4.35;;;;;;;15.58;64.31;99758.44;5072529;28;20409;-87
2021/06/22 02:54:37;;;;;;;6.75;4.30;;;;;;;15.59;64.33;99762.78;5072498;28;20048;-87
2021/06/22 02:57:06;;;;;;;8.77;3.75;;;;;;;15.59;64.09;99771.59;5072903;28;20059;-87
2021/06/22 02:59:33;;;;;;;7.45;4.03;;;;;;;15.60;64.06;99761.81;5072480;28;20055;-87
2021/06/22 03:02:00;;;;;;;10.25;4.85;;;;;;;15.61;64.16;99774.13;5074111;28;20543;-87
2021/06/22 03:04:27;;;;;;;10.60;4.55;;;;;;;15.59;64.14;99768.94;5072482;28;20048;-87
2021/06/22 03:06:54;;;;;;;11.00;4.68;;;;;;;15.58;64.41;99775.22;5072385;28;20105;-87
2021/06/22 03:09:21;;;;;;;12.00;4.70;;;;;;;15.58;64.22;99772.56;5072608;28;20061;-87
2021/06/22 03:11:48;;;;;;;13.00;4.75;;;;;;;15.57;64.18;99767.38;5072725;28;20049;-87
2021/06/22 03:14:15;;;;;;;6.20;4.20;;;;;;;15.57;64.18;99762.06;5073281;28;20044;-86
2021/06/22 03:16:42;;;;;;;8.90;4.35;;;;;;;15.56;64.25;99753.28;5073380;28;20052;-87
2021/06/22 03:19:09;;;;;;;8.50;4.45;;;;;;;15.56;64.36;99753.28;5072460;28;20048;-87
2021/06/22 03:21:35;;;;;;;9.50;4.60;;;;;;;15.57;64.31;99747.00;5086283;28;20059;-86
2021/06/22 03:24:03;;;;;;;8.95;4.05;;;;;;;15.57;64.32;99746.13;5093350;28;20048;-87
2021/06/22 03:26:30;;;;;;;9.43;4.97;;;;;;;15.58;64.31;99761.09;5092322;28;20055;-87
2021/06/22 03:28:56;;;;;;;11.15;4.88;;;;;;;15.58;64.36;99774.34;5093361;28;20044;-87
2021/06/22 03:31:26;;;;;;;9.05;4.80;;;;;;;15.58;64.27;99782.31;5091764;28;20055;-87
2021/06/22 03:33:53;;;;;;;10.35;4.88;;;;;;;15.57;64.05;99789.44;5092251;28;20048;-87
2021/06/22 03:36:20;;;;;;;7.65;4.32;;;;;;;15.58;64.34;99800.88;5093585;28;20048;-87
2021/06/22 03:38:47;;;;;;;11.25;5.07;;;;;;;15.57;64.75;99805.38;5092323;28;20463;-87
2021/06/22 03:41:13;;;;;;;13.82;4.28;;;;;;;15.58;64.54;99814.16;5091736;28;20105;-87
2021/06/22 03:43:40;;;;;;;8.73;4.05;;;;;;;15.62;65.04;99815.59;5092187;28;20047;-86
2021/06/22 03:46:07;;;;;;;6.90;4.18;;;;;;;15.64;64.82;99809.22;5092450;28;20439;-87
2021/06/22 03:48:34;;;;;;;10.75;4.40;;;;;;;15.68;64.94;99808.97;5092081;28;20417;-86
2021/06/22 03:51:00;;;;;;;8.65;4.68;;;;;;;15.71;65.15;99817.56;5091821;28;20055;-86
2021/06/22 03:53:27;;;;;;;14.60;4.55;;;;;;;15.75;65.11;99819.00;5093456;28;20052;-86
2021/06/22 03:55:54;;;;;;;10.20;4.88;;;;;;;15.82;65.02;99827.34;5092012;28;20048;-86
2021/06/22 03:58:22;;;;;;;8.40;4.68;;;;;;;15.86;64.96;99815.50;5091595;28;20051;-88
2021/06/22 04:00:48;;;;;;;9.27;4.70;;;;;;;15.91;64.92;99807.19;5091847;28;20169;-87
2021/06/22 04:03:16;;;;;;;13.00;6.07;;;;;;;15.95;64.95;99799.84;5092883;28;20052;-87
2021/06/22 04:05:42;;;;;;;12.00;6.72;;;;;;;15.98;64.79;99792.50;5091779;28;20055;-87
2021/06/22 04:08:09;;;;;;;18.65;6.53;;;;;;;16.01;64.61;99792.22;5091709;28;20101;-87
2021/06/22 04:10:35;;;;;;;15.45;7.20;;;;;;;16.03;64.62;99786.81;5092680;28;20052;-86
2021/06/22 04:13:02;;;;;;;17.25;7.40;;;;;;;16.05;64.63;99787.53;5091343;28;20172;-87
2021/06/22 04:15:29;;;;;;;8.38;5.97;;;;;;;16.08;64.55;99791.75;5091101;28;20052;-86
2021/06/22 04:18:06;;;;;;;10.52;6.40;;;;;;;16.06;64.74;99786.56;5092638;28;20059;-86
2021/06/22 04:20:34;;;;;;;10.13;5.47;;;;;;;16.12;64.29;99790.56;5092432;28;20044;-86
2021/06/22 04:23:01;;;;;;;10.50;4.97;;;;;;;16.14;64.06;99793.91;5091534;28;20052;-84
2021/06/22 04:25:28;;;;;;;10.38;5.38;;;;;;;16.13;64.12;99801.06;5093393;28;20102;-84
2021/06/22 04:28:00;;;;;;;13.85;4.85;;;;;;;16.13;64.33;99794.88;5092146;28;20044;-84
2021/06/22 04:30:27;;;;;;;11.68;5.25;;;;;;;16.14;64.29;99796.56;5093046;28;20409;-84
2021/06/22 04:32:54;;;;;;;11.73;4.32;;;;;;;16.16;64.34;99797.31;5094076;28;20039;-84
2021/06/22 04:35:20;;;;;;;7.68;4.35;;;;;;;16.17;64.52;99791.03;5092873;28;20630;-84
2021/06/22 04:37:48;;;;;;;8.68;4.10;;;;;;;16.18;64.40;99786.56;5094340;28;20048;-84
2021/06/22 04:40:14;;;;;;;11.48;4.65;;;;;;;16.21;64.36;99780.97;5093323;28;20048;-84
2021/06/22 04:42:41;;;;;;;9.43;3.80;;;;;;;16.25;64.31;99787.75;5097447;28;20074;-84
2021/06/22 04:45:09;;;;;;;8.45;3.90;;;;;;;16.26;64.49;99786.78;5091886;28;20105;-84
2021/06/22 04:47:36;;;;;;;10.07;4.00;;;;;;;16.32;64.44;99782.78;5091523;28;20805;-84
2021/06/22 04:50:04;;;;;;;11.88;4.03;;;;;;;16.34;64.35;99778.19;5092365;28;20134;-84
2021/06/22 04:52:35;;;;;;;7.72;3.65;;;;;;;16.38;64.24;99774.31;5093661;28;20451;-84
2021/06/22 04:55:04;;;;;;;10.65;3.97;;;;;;;16.41;64.25;99772.25;5093396;28;20060;-84
2021/06/22 04:57:30;;;;;;;10.15;3.90;;;;;;;16.45;64.29;99767.53;5093043;28;20108;-84
2021/06/22 04:59:57;;;;;;;9.95;3.78;;;;;;;16.49;64.53;99773.44;5092188;28;20051;-84
2021/06/22 05:02:24;;;;;;;11.40;4.25;;;;;;;16.52;64.03;99775.88;5092555;28;20101;-84
2021/06/22 05:04:51;;;;;;;11.90;3.83;;;;;;;16.54;63.77;99782.75;5092917;28;20101;-84
2021/06/22 05:07:17;;;;;;;6.03;3.40;;;;;;;16.57;63.90;99780.78;5091564;28;20035;-85
2021/06/22 05:09:44;;;;;;;9.27;4.00;;;;;;;16.59;63.81;99781.50;5093182;28;20440;-84
2021/06/22 05:12:11;;;;;;;8.15;4.03;;;;;;;16.61;63.78;99779.56;5091905;28;20055;-85
2021/06/22 05:14:37;;;;;;;10.07;3.90;;;;;;;16.64;63.87;99776.66;5093674;28;20477;-84
2021/06/22 05:17:04;;;;;;;9.70;3.72;;;;;;;16.66;63.80;99775.56;5095422;28;20082;-86
2021/06/22 05:19:30;;;;;;;7.82;3.55;;;;;;;16.67;63.80;99766.59;5091583;28;20052;-85
2021/06/22 05:21:57;;;;;;;11.05;3.58;;;;;;;16.70;63.91;99770.81;5088851;28;20051;-86
2021/06/22 05:24:24;;;;;;;11.00;3.88;;;;;;;16.73;63.69;99770.56;5090045;28;20052;-86
2021/06/22 05:26:50;;;;;;;8.57;3.58;;;;;;;16.77;63.82;99785.31;5089227;28;20048;-85
2021/06/22 05:29:17;;;;;;;6.90;3.15;;;;;;;16.80;63.74;99795.69;5089250;28;20048;-85
2021/06/22 05:31:43;;;;;;;9.80;3.63;;;;;;;16.85;63.68;99786.50;5089869;28;20051;-85
2021/06/22 05:34:10;;;;;;;9.73;3.72;;;;;;;16.89;63.81;99785.22;5089729;28;20760;-86
2021/06/22 05:36:36;;;;;;;8.85;3.80;;;;;;;16.93;63.82;99781.34;5091899;28;20056;-86
2021/06/22 05:39:03;;;;;;;12.15;3.45;;;;;;;16.97;63.49;99782.78;5091271;28;20052;-86
2021/06/22 05:41:33;;;;;;;10.48;3.67;;;;;;;17.03;63.67;99786.75;5090861;28;20048;-85
2021/06/22 05:44:00;;;;;;;9.38;3.38;;;;;;;17.04;63.50;99773.38;5092068;28;20059;-86
2021/06/22 05:46:27;;;;;;;11.52;3.90;;;;;;;17.10;63.35;99787.09;5090600;28;20539;-85
2021/06/22 05:48:53;;;;;;;7.60;2.97;;;;;;;17.14;63.39;99783.22;5092181;28;20101;-86
2021/06/22 05:51:20;;;;;;;8.18;3.65;;;;;;;17.17;63.11;99797.13;5091252;28;20063;-85
2021/06/22 05:53:47;;;;;;;11.23;3.45;;;;;;;17.21;63.38;99792.38;5091812;28;20090;-85
2021/06/22 05:56:13;;;;;;;15.23;4.00;;;;;;;17.24;63.21;99800.09;5095053;28;20048;-85
2021/06/22 05:58:40;;;;;;;9.38;3.63;;;;;;;17.28;63.08;99788.22;5094454;28;20410;-86
2021/06/22 06:01:11;;;;;;;11.63;4.22;;;;;;;17.32;63.03;99786.97;5093689;28;20559;-86
2021/06/22 06:03:37;;;;;;;10.80;3.50;;;;;;;17.38;62.87;99792.75;5095037;28;20048;-85
2021/06/22 06:06:04;;;;;;;11.48;3.65;;;;;;;17.40;63.13;99789.00;5095534;28;20097;-85
2021/06/22 06:08:34;;;;;;;9.65;3.45;;;;;;;17.45;62.82;99799.22;5095810;28;20055;-85
2021/06/22 06:11:04;;;;;;;9.93;3.72;;;;;;;17.49;62.77;99805.97;5093967;28;20069;-85
2021/06/22 06:13:31;;;;;;;8.45;3.13;;;;;;;17.54;62.69;99789.63;5094256;28;20055;-85
2021/06/22 06:15:58;;;;;;;13.43;3.10;;;;;;;17.57;62.63;99800.84;5095333;28;20101;-85
2021/06/22 06:18:26;;;;;;;7.22;3.10;;;;;;;17.62;62.40;99810.25;5093883;28;20089;-85
2021/06/22 06:20:55;;;;;;;10.57;3.58;;;;;;;17.65;62.55;99810.00;5094650;28;20501;-85
2021/06/22 06:23:23;;;;;;;7.72;2.90;;;;;;;17.69;62.23;99811.41;5073480;28;20054;-85
2021/06/22 06:25:50;;;;;;;8.13;3.22;;;;;;;17.73;62.37;99820.81;5074167;28;20048;-85
2021/06/22 06:28:19;;;;;;;5.88;2.63;;;;;;;17.77;61.97;99824.06;5074455;28;20506;-85
2021/06/22 06:30:46;;;;;;;5.88;2.80;;;;;;;17.81;61.99;99834.31;5073324;28;20052;-85
2021/06/22 06:33:15;;;;;;;9.90;3.80;;;;;;;17.86;61.68;99833.06;5095083;28;20059;-86
2021/06/22 06:35:42;;;;;;;10.38;2.95;;;;;;;17.90;61.49;99837.16;5094902;28;20056;-85
2021/06/22 06:38:09;;;;;;;4.82;2.38;;;;;;;17.92;61.64;99835.19;5095322;28;20051;-86
2021/06/22 06:40:36;;;;;;;8.10;3.08;;;;;;;17.95;61.79;99838.41;5094969;28;20052;-86
2021/06/22 06:43:03;;;;;;;7.88;2.80;;;;;;;17.98;61.56;99837.31;5094557;28;20067;-86
2021/06/22 06:45:30;;;;;;;11.32;3.17;;;;;;;18.03;61.51;99840.44;5094527;28;20052;-86
2021/06/22 06:47:57;;;;;;;9.25;2.92;;;;;;;18.07;61.43;99838.34;5094630;28;20064;-86
2021/06/22 06:50:26;;;;;;;15.10;3.38;;;;;;;18.14;61.43;99852.00;5092976;28;20051;-86
2021/06/22 06:52:55;;;;;;;15.00;3.30;;;;;;;18.18;61.00;99843.63;5093451;28;20063;-87
2021/06/22 06:55:29;;;;;;;10.00;2.80;;;;;;;18.23;61.22;99846.72;5093030;28;20056;-87
2021/06/22 06:58:01;;;;;;;8.40;2.22;;;;;;;18.27;60.99;99852.59;5093295;28;20048;-86
2021/06/22 07:00:30;;;;;;;7.57;3.05;;;;;;;18.33;60.99;99851.22;5094106;28;20109;-87
2021/06/22 07:02:57;;;;;;;8.98;3.17;;;;;;;18.36;60.83;99851.78;5093243;28;20054;-87
2021/06/22 07:05:24;;;;;;;9.25;2.40;;;;;;;18.43;60.62;99856.59;5091962;28;20051;-86
2021/06/22 07:07:51;;;;;;;6.22;2.65;;;;;;;18.49;60.37;99862.22;5092668;28;20047;-88
2021/06/22 07:10:18;;;;;;;5.80;2.70;;;;;;;18.54;60.06;99852.97;5092728;28;20052;-88
2021/06/22 07:12:46;;;;;;;11.07;3.42;;;;;;;18.57;60.28;99866.84;5094413;28;20135;-87
2021/06/22 07:15:13;;;;;;;12.00;2.63;;;;;;;18.60;59.92;99873.72;5092547;28;20059;-87
2021/06/22 07:17:40;;;;;;;7.57;2.78;;;;;;;18.62;59.80;99869.13;5093698;28;20517;-87
2021/06/22 07:20:07;;;;;;;6.63;2.67;;;;;;;18.63;59.54;99865.47;5093606;28;20055;-88
2021/06/22 07:22:35;;;;;;;8.52;3.20;;;;;;;18.64;59.24;99867.13;5092371;28;20055;-88
2021/06/22 07:25:03;;;;;;;5.80;2.78;;;;;;;18.64;59.08;99864.47;5093453;28;20117;-88
2021/06/22 07:27:29;;;;;;;7.05;2.65;;;;;;;18.62;59.06;99856.59;5092298;28;20105;-88
2021/06/22 07:29:56;;;;;;;6.90;3.15;;;;;;;18.61;59.13;99860.25;5092569;28;20059;-87
2021/06/22 07:32:22;;;;;;;14.20;3.70;;;;;;;18.63;59.16;99865.47;5092985;28;20052;-88
2021/06/22 07:34:49;;;;;;;8.75;3.22;;;;;;;18.64;59.04;99868.97;5092086;28;20047;-88
2021/06/22 07:37:16;;;;;;;10.35;3.20;;;;;;;18.65;59.25;99876.00;5093552;28;20070;-88
2021/06/22 07:39:42;;;;;;;9.10;3.60;;;;;;;18.69;59.30;99877.41;5093145;28;20052;-87
2021/06/22 07:42:09;;;;;;;9.63;3.67;;;;;;;18.72;59.63;99885.97;5092168;28;20519;-88
2021/06/22 07:44:35;;;;;;;12.23;3.70;;;;;;;18.79;59.12;99886.25;5092123;28;20052;-87
2021/06/22 07:47:02;;;;;;;8.10;3.40;;;;;;;18.84;58.95;99884.00;5093276;28;20074;-88
2021/06/22 07:49:29;;;;;;;12.43;3.70;;;;;;;18.89;59.33;99878.28;5093037;28;20051;-88
2021/06/22 07:51:56;;;;;;;9.15;3.35;;;;;;;18.96;59.34;99878.56;5091899;28;20517;-87
2021/06/22 07:54:23;;;;;;;8.70;4.00;;;;;;;19.03;59.60;99893.03;5091434;28;20100;-87
2021/06/22 07:56:49;;;;;;;9.02;4.20;;;;;;;19.10;58.92;99896.84;5093026;28;20044;-88
2021/06/22 07:59:16;;;;;;;11.23;4.20;;;;;;;19.17;58.73;99901.63;5092934;28;20066;-87
2021/06/22 08:01:43;;;;;;;12.80;4.25;;;;;;;19.23;58.65;99895.72;5093158;28;20055;-88
2021/06/22 08:04:09;;;;;;;15.07;4.82;;;;;;;19.26;58.03;99893.59;5091572;28;20048;-88
2021/06/22 08:06:36;;;;;;;9.27;4.25;;;;;;;19.30;58.08;99890.66;5092864;28;20048;-88
2021/06/22 08:09:03;;;;;;;8.82;4.32;;;;;;;19.34;57.61;99889.41;5092772;28;20275;-87
2021/06/22 08:11:29;;;;;;;14.45;5.68;;;;;;;19.36;57.29;99890.13;5093206;28;20047;-88
2021/06/22 08:13:56;;;;;;;9.00;4.60;;;;;;;19.39;57.53;99890.66;5091205;28;20059;-89
2021/06/22 08:16:22;;;;;;;9.05;4.45;;;;;;;19.41;57.71;99877.19;5091433;28;20052;-88
2021/06/22 08:18:49;;;;;;;8.95;4.60;;;;;;;19.46;58.08;99893.59;5092157;28;20052;-88
2021/06/22 08:21:16;;;;;;;9.48;4.43;;;;;;;19.54;58.24;99895.56;5072545;28;20094;-88
2021/06/22 08:23:43;;;;;;;10.15;4.85;;;;;;;19.64;59.05;99888.38;5071034;28;20106;-87
2021/06/22 08:26:10;;;;;;;12.63;5.10;;;;;;;19.81;58.86;99893.94;5072800;28;20387;-88
2021/06/22 08:28:37;;;;;;;10.85;4.78;;;;;;;19.98;58.72;99891.53;5072355;28;20048;-89
2021/06/22 08:31:03;;;;;;;8.88;4.70;;;;;;;20.16;58.17;99895.16;5092392;28;20060;-88
2021/06/22 08:33:30;;;;;;;10.55;5.35;;;;;;;20.31;56.93;99889.31;5092157;28;20143;-88
2021/06/22 08:35:57;;;;;;;14.05;5.75;;;;;;;20.48;57.47;99887.69;5091148;28;20093;-89
2021/06/22 08:38:23;;;;;;;8.95;4.75;;;;;;;20.61;56.65;99887.34;5092361;28;20056;-88
2021/06/22 08:40:50;;;;;;;12.07;5.53;;;;;;;20.73;56.08;99887.97;5091995;28;20126;-88
2021/06/22 08:43:17;;;;;;;9.25;5.03;;;;;;;20.83;55.64;99885.22;5092250;28;20493;-88
2021/06/22 08:45:45;;;;;;;9.07;4.90;;;;;;;20.90;55.65;99886.31;5090576;28;20044;-88
2021/06/22 08:48:11;;;;;;;10.02;4.55;;;;;;;20.95;55.91;99894.75;5091331;28;20056;-87
2021/06/22 08:50:40;;;;;;;10.13;4.82;;;;;;;21.02;54.71;99899.47;5090926;28;20052;-90
2021/06/22 08:53:07;;;;;;;11.32;5.22;;;;;;;21.06;54.59;99893.69;5090990;28;20048;-88
2021/06/22 08:55:34;;;;;;;11.75;5.28;;;;;;;21.10;54.56;99902.25;5090510;28;20048;-90
2021/06/22 08:58:11;;;;;;;10.13;6.00;;;;;;;21.08;53.85;99899.72;5092489;28;20048;-86
2021/06/22 09:00:40;;;;;;;9.60;5.10;;;;;;;21.14;55.24;99903.63;5090912;28;20097;-88
2021/06/22 09:03:11;;;;;;;9.48;5.03;;;;;;;21.18;54.37;99902.31;5090957;28;20054;-88
2021/06/22 09:05:46;;;;;;;9.95;5.07;;;;;;;21.20;53.90;99899.50;5090474;28;20101;-89
2021/06/22 09:08:33;;;;;;;9.38;4.95;;;;;;;21.22;54.15;99898.34;5090632;28;20052;-88
2021/06/22 09:11:07;;;;;;;9.25;4.78;;;;;;;21.29;53.50;99905.75;5090662;28;20055;-89
2021/06/22 09:13:34;;;;;;;11.43;4.90;;;;;;;21.35;54.11;99905.13;5090603;28;20048;-88
2021/06/22 09:16:01;;;;;;;6.80;4.15;;;;;;;21.38;53.54;99899.44;5091801;28;20142;-88
2021/06/22 09:18:43;;;;;;;7.60;5.30;;;;;;;21.40;53.16;99908.19;5092189;28;20131;-88
2021/06/22 09:21:14;;;;;;;7.88;5.32;;;;;;;21.51;53.60;99903.56;5070335;28;20050;-88
2021/06/22 09:23:43;;;;;;;9.88;6.50;;;;;;;21.66;54.20;99914.56;5070320;28;20444;-88
2021/06/22 09:26:21;;;;;;;6.47;5.40;;;;;;;21.79;52.84;99927.59;5070812;28;20048;-88
2021/06/22 09:28:48;;;;;;;15.38;5.72;;;;;;;21.93;51.58;99908.25;5074525;28;20048;-88
2021/06/22 09:31:18;;;;;;;7.55;5.30;;;;;;;21.99;50.98;99904.94;5095567;28;20101;-88
2021/06/22 09:33:51;;;;;;;9.45;4.80;;;;;;;22.02;51.11;99906.47;5095315;28;20067;-89
2021/06/22 09:36:29;;;;;;;9.02;6.28;;;;;;;22.00;50.87;99919.19;5095742;28;20052;-87
2021/06/22 09:39:06;;;;;;;11.57;6.45;;;;;;;21.99;51.04;99906.78;5094025;28;20052;-88
2021/06/22 09:41:41;;;;;;;8.50;6.07;;;;;;;21.93;49.83;99910.09;5094823;28;20135;-88
2021/06/22 09:44:17;;;;;;;8.57;5.72;;;;;;;21.87;51.13;99909.72;5093975;28;20528;-87
2021/06/22 09:46:46;;;;;;;8.35;6.10;;;;;;;21.89;50.82;99901.53;5094278;28;20097;-88
2021/06/22 09:49:19;;;;;;;9.75;6.35;;;;;;;21.89;50.31;99901.53;5095613;28;20433;-88
2021/06/22 09:52:15;;;;;;;11.77;6.78;;;;;;;21.93;50.69;99894.84;5094559;28;20044;-88
2021/06/22 09:54:41;;;;;;;8.40;6.68;;;;;;;21.94;50.76;99899.22;5093905;28;20098;-88
2021/06/22 09:57:25;;;;;;;8.35;6.30;;;;;;;21.90;49.57;99897.03;5095584;28;20048;-87
2021/06/22 09:59:57;;;;;;;12.20;7.20;;;;;;;21.91;50.64;99899.56;5093957;28;20051;-88
2021/06/22 10:02:26;;;;;;;12.27;7.07;;;;;;;21.95;51.51;99900.06;5095420;28;20402;-87
2021/06/22 10:04:58;;;;;;;9.10;6.20;;;;;;;22.00;50.06;99897.75;5095465;28;20044;-88
2021/06/22 10:07:27;;;;;;;11.43;6.53;;;;;;;22.07;50.18;99908.66;5094191;28;20083;-87
2021/06/22 10:09:56;;;;;;;11.80;6.85;;;;;;;22.10;49.01;99911.84;5093377;28;20536;-88
2021/06/22 10:12:27;;;;;;;13.55;6.93;;;;;;;22.08;49.66;99904.97;5093972;28;20390;-87
2021/06/22 10:14:57;;;;;;;8.60;6.40;;;;;;;22.09;49.67;99898.63;5093299;28;20404;-88
2021/06/22 10:17:26;;;;;;;8.75;7.00;;;;;;;22.16;50.52;99907.69;5093947;28;20093;-88
2021/06/22 10:19:54;;;;;;;11.55;6.88;;;;;;;22.24;50.45;99902.38;5094751;28;20044;-88
2021/06/22 10:22:25;;;;;;;10.40;6.70;;;;;;;22.35;49.46;99901.25;5095111;28;20064;-88
2021/06/22 10:24:54;;;;;;;8.50;6.30;;;;;;;22.46;49.72;99892.06;5094726;28;20055;-87
2021/06/22 10:27:21;;;;;;;8.70;5.68;;;;;;;22.57;49.60;99890.16;5093453;28;20420;-88
2021/06/22 10:29:51;;;;;;;8.23;6.32;;;;;;;22.68;48.89;99889.00;5093386;28;20047;-87
2021/06/22 10:32:20;;;;;;;9.38;6.63;;;;;;;22.80;48.29;99898.41;5093595;28;20044;-87
2021/06/22 10:34:48;;;;;;;13.10;7.25;;;;;;;22.92;48.00;99898.94;5094611;28;20048;-88
2021/06/22 10:37:22;;;;;;;7.70;6.90;;;;;;;23.02;47.60;99886.19;5093018;28;20056;-87
2021/06/22 10:39:55;;;;;;;10.80;7.75;;;;;;;23.15;47.77;99879.50;5073036;28;20078;-88
2021/06/22 10:42:22;;;;;;;10.23;7.40;;;;;;;23.32;48.38;99887.56;5073269;28;20056;-88
2021/06/22 10:44:59;;;;;;;9.05;7.15;;;;;;;23.42;48.15;99888.25;5072944;28;20102;-87
2021/06/22 10:47:30;;;;;;;8.82;6.72;;;;;;;23.59;47.76;99890.94;5073475;28;20518;-87
2021/06/22 10:50:15;;;;;;;9.13;7.43;;;;;;;23.74;47.13;99886.53;5094384;28;20102;-87
2021/06/22 10:52:42;;;;;;;7.25;6.50;;;;;;;23.95;47.13;99893.22;5093963;28;20070;-87
2021/06/22 10:55:27;;;;;;;7.97;6.40;;;;;;;24.02;46.27;99891.53;5093859;28;20052;-88
2021/06/22 10:58:08;;;;;;;11.73;6.70;;;;;;;24.13;46.41;99892.19;5094315;28;20055;-88
2021/06/22 11:00:40;;;;;;;10.82;6.63;;;;;;;24.16;45.92;99897.22;5094170;28;20044;-87
2021/06/22 11:03:21;;;;;;;8.15;6.72;;;;;;;24.17;45.86;99899.75;5092986;28;20051;-88
2021/06/22 11:05:49;;;;;;;13.05;6.70;;;;;;;24.18;45.98;99901.41;5093906;28;20048;-88
2021/06/22 11:08:16;;;;;;;10.13;6.95;;;;;;;24.15;45.77;99888.31;5092694;28;20048;-88
2021/06/22 11:10:55;;;;;;;7.30;6.20;;;;;;;24.13;44.95;99893.03;5092801;28;20527;-87
2021/06/22 11:13:40;;;;;;;8.65;6.65;;;;;;;24.13;45.33;99902.94;5092840;28;20109;-88
2021/06/22 11:16:12;;;;;;;7.35;5.95;;;;;;;24.12;44.04;99910.19;5094203;28;20095;-87
2021/06/22 11:18:52;;;;;;;6.60;5.70;;;;;;;24.08;45.95;99911.50;5092599;28;20051;-87
2021/06/22 11:21:28;;;;;;;7.65;6.43;;;;;;;24.16;45.46;99905.28;5092935;28;20052;-88
2021/06/22 11:24:00;;;;;;;11.93;7.07;;;;;;;24.32;47.17;99907.91;5092148;28;20059;-87
2021/06/22 11:26:29;;;;;;;;;;;;;;;24.52;48.87;99896.72;5094012;28;20143;-88
2021/06/22 11:28:58;;;;;;;8.95;5.43;;;;;;;24.90;46.86;99896.06;5093828;28;19927;-87
2021/06/22 11:32:04;;;;;;;6.55;5.57;;;;;;;25.19;46.95;99899.06;5092363;28;20052;-88
2021/06/22 11:34:50;;;;;;;6.85;5.30;;;;;;;25.41;43.49;99901.91;4994573;28;20077;-87
2021/06/22 11:37:17;;;;;;;8.40;5.55;;;;;;;25.54;43.73;99901.28;5011283;28;20049;-89